Share

Ely, MN

RAWS ELY MN US (MELOM5) Elev 1455 ft | 47.83 °N, 91.84 °W | Change Station
Active Advisory: Winter Weather Advisory Active Notice: Record Report

Current weather conditions updated 44 minutes ago

Snow
Snow
33 °F
Feels Like 23 °F
N
14
Wind Variable Wind from SE
Gusts 27.0 mph
Sunrise 6:10 AM
Sunset 8:03 PM
Moon Waning Gibbous

Today is forecast to be nearly the same temperature as yesterday. Cloudy with a wintry mix.

Pressure 30.15 in
Visibility 1.0 miles
Clouds Mostly Cloudy 400 ft
Overcast 800 ft
Windchill 23 °F
Dew Point 24 °F
Humidity 68%
Rainfall 0.00 in
Snow Depth Not available.
UV 0 out of 16
Pollen 5.30 out of 12
Air Quality Not available.
Flu Activity Sporadic
METAR KELO 191133Z AUTO 12015G19KT 1SM SN BKN004 OVC008 M01/M02 A3015 RMK AO2

More Conditions Fewer Conditions

Pressure 30.15 in
Visibility 1.0 miles
Clouds Mostly Cloudy 400 ft
Overcast 800 ft
Windchill 23 °F
Dew Point 24 °F
Humidity 68%
Rainfall 0.00 in
Snow Depth Not available.
UV 0 out of 16
Pollen 5.30 out of 12
Air Quality Not available.
Flu Activity Sporadic
METAR KELO 191133Z AUTO 12015G19KT 1SM SN BKN004 OVC008 M01/M02 A3015 RMK AO2

More Conditions Fewer Conditions

10-Day Weather Forecast

Almanac

Astronomy

Apr. 19, 2014 Rise Set
Actual Time 6:10 AM CDT 8:03 PM CDT
Civil Twilight 5:37 AM CDT 8:36 PM CDT
Nautical Twilight 4:57 AM CDT 9:17 PM CDT
Astronomical Twilight 4:12 AM CDT 10:02 PM CDT
Moon No Moon Rise 9:19 AM CDT
Length of Visible Light 14h 58m
Length of Day
13h 52m
Tomorrow will be 3m 17s longer.
Waning Gibbous, 80% of the Moon is Illuminated
Today
Waning Gibbous
Apr 22
Last Quarter
Apr 29
New
May 6
First Quarter
May 14
Full

Today's Extremes

State Highs State Lows

Community

  • Bleeding Hearts
    Bleeding Hearts
  • Sunset Silhouettes
    Sunset Silhouettes
  • FL sunset Perico Isle
    FL sunset Perico Isle
  • Cloudy spring view
    Cloudy spring view
  • Old barn
    Old barn

WunderPhotos

Upload Photos

1,702,687 photos uploaded!

Nearby

Snow Depth

Station Depth Elevation
No new snow has been reported.

Coastal Water Temperatures

Place Temperature
No Stations Reporting

Earthquake Activity

City Distance Mag. Time & Date
No recent earthquake activity has been reported nearby.
Minimum magnitude displayed is 2.5.

Nearby Weather Stations

Station Location Temp. Windchill Dew Point Humidity Wind Precip. Elev Updated Type
RAWS ELY MN, Ely, MN 33 °F 23 °F 24 °F 68% SE  at  14 mph 0.00 in / hr 1455 ft 6:04 AM CDT MADIS
HADS SOUTH FORK KAWISHIWI RIVER NEAR MN, Winton, MN 33 °F 33 °F - - North  at  - 0.00 in / hr 1419 ft 5:30 AM CDT MADIS
RAWS FERNBERG MN, Winton, MN 31 °F 22 °F 24 °F 74% SE  at  11 mph 0.00 in / hr 1608 ft 6:13 AM CDT MADIS
RAWS MEANDER MN, Crane Lake, MN 30 °F 21 °F 27 °F 89% ESE  at  11 mph 0.00 in / hr 1368 ft 6:04 AM CDT MADIS

Show More Stations Show Fewer Stations

What do you think?

We're not finished. Please let us know what you like, what you don't like, and what you are still missing.